Terminal Aerodrome Forecast
Issued by NWS

Home | Current Version | Previous Version | Graphics & Text | Print | Product List | Glossary On
Versions: 1 2 3 4 5 6 7 8 9 10 11 12 13 14 15 16 17 18 19 20 21 22 23
369
FTUS43 KTOP 301023 AAA
TAFMHK
TAF AMD
KMHK 301023Z 3010/0106 04015G23KT 5SM BR OVC008
      TEMPO 3010/3014 P6SM TSRA OVC005CB
     FM301600 10008KT P6SM VCSH OVC004
     FM302000 17008KT P6SM VCSH OVC009
     FM010300 28013KT P6SM VCSH OVC007=

USA.gov is the U.S. government's official web portal to all federal, state and local government web resources and services.